Αρχική σελίδα
METAR-TAF:

METAR-TAF

Αεροδρόμια :

Phillip Goldston

Πόλη του Μπελίζε, Μπελίζε

γεωγραφικό πλάτος: 17-32N, γεωγραφικό μήκος: 088-18W, υψόμετρο: 5 μ

Παρών καιρός

Η αναφορά έγινε 3 ώρες και 24 λεπτά πριν, στις 00:00 UTC
Άνεμος 7 kt από Α
Θερμοκρασία 29°C
Υγρασία 74%
Πίεση 1011 hPa
Ορατότητα 10 χλμ και άνω
Λίγα νέφη σε ύψος 2100 πόδια

METAR: MZBZ 240000Z 10007KT 9999 FEW021 29/24 A2987 Q1011 NOSIG

Χρόνος: 21:24 (03:24 UTC)

Πρόγνωση Καιρού

Η αναφορά έγινε 6 ώρες και 24 λεπτά πριν, στις 21:00 UTC
Η πρόγνωση ισχύει από τις 24 στις 00 UTC έως τις 24 στις 24 UTC
Άνεμος 8 kt από Α/NA
Ορατότητα 10 χλμ και άνω
Διάσπαρτα νέφη σε ύψος 2200 πόδια

TAF: MZBZ 232100Z 2400/2424 11008KT 9999 SCT022

Μετεωρολογικές αναφορές και προγνώσεις για περισσότερα από 4000 αεροδρόμια (δελτία METAR και TAF).

Οι διαθέσιμοι σταθμοί απεικονίζονται στο χάρτη με κίτρινες και κόκκινες κουκκίδες.

Μετακινήστε το ποντίκι πάνω από τις κουκκίδες για να δείτε το όνομα του σταθμού.

Στη συνέχεια, κάντε κλικ για να δείτε τις μετεωρολογικές αναφορές και τις προγνώσεις καιρού.

Για να αλλάξετε το χάρτη: κάντε κλικ στα πράσινα κουμπιά με τον μαύρο σταυρό για να ζουμάρετε, στο πράσινο κουμπί με την παύλα για να αφαιρέσετε το ζουμ ή στα πράσινα βέλη για να αντιπαραβάλλετε χάρτες.


METAR-TAF: